createdAt,value
2023-01-29T00:00:10.196Z,85.66
2023-01-29T00:02:40.536Z,84.96
2023-01-29T00:05:26.050Z,84.42
2023-01-29T00:07:56.702Z,85.32
2023-01-29T00:10:25.580Z,85.17
2023-01-29T00:12:53.066Z,85.76
2023-01-29T00:15:20.803Z,84.95
2023-01-29T00:17:48.309Z,85.51
2023-01-29T00:20:16.399Z,86.05
2023-01-29T00:22:43.992Z,86.01
2023-01-29T00:25:12.151Z,85.78
2023-01-29T00:27:39.600Z,85.65
2023-01-29T00:30:16.483Z,86.12
2023-01-29T00:32:45.291Z,86.31
2023-01-29T00:35:12.599Z,87.02
2023-01-29T00:37:39.999Z,86.54
2023-01-29T00:40:08.021Z,85.09
2023-01-29T00:42:53.997Z,85.50
2023-01-29T00:45:21.449Z,85.39
2023-01-29T00:47:48.852Z,86.00
2023-01-29T00:50:16.490Z,85.87
2023-01-29T00:52:44.361Z,85.86
2023-01-29T00:55:11.959Z,85.54
2023-01-29T00:57:39.322Z,85.32
2023-01-29T01:00:10.312Z,85.26
2023-01-29T01:02:56.140Z,85.61
2023-01-29T01:05:23.735Z,85.79
2023-01-29T01:07:54.022Z,86.80
2023-01-29T01:10:25.718Z,85.55
2023-01-29T01:12:58.206Z,86.28
2023-01-29T01:15:34.756Z,87.12
2023-01-29T01:18:03.493Z,86.50
2023-01-29T01:20:34.003Z,86.24
2023-01-29T01:23:01.358Z,85.86
2023-01-29T01:25:28.762Z,87.04
2023-01-29T01:30:26.079Z,87.22
2023-01-29T01:32:53.588Z,87.09
2023-01-29T01:35:21.032Z,87.97
2023-01-29T01:37:48.389Z,88.47
2023-01-29T01:40:23.716Z,88.92
2023-01-29T01:42:54.214Z,87.50
2023-01-29T01:45:29.304Z,87.67
2023-01-29T01:48:06.670Z,87.82
2023-01-29T01:50:40.136Z,89.40
2023-01-29T01:53:11.831Z,88.80
2023-01-29T01:55:45.755Z,88.55
2023-01-29T01:58:21.599Z,88.94
2023-01-29T02:00:49.229Z,89.47
2023-01-29T02:03:38.590Z,89.14
2023-01-29T02:06:24.628Z,89.43
2023-01-29T02:09:17.213Z,89.71
2023-01-29T02:11:45.161Z,89.29
2023-01-29T02:14:12.737Z,88.44
2023-01-29T02:16:40.110Z,88.93
2023-01-29T02:19:23.806Z,89.24
2023-01-29T02:22:07.996Z,89.36
2023-01-29T02:24:44.428Z,89.63
2023-01-29T02:27:19.963Z,89.15
2023-01-29T02:29:59.271Z,89.10
2023-01-29T02:32:34.980Z,89.18
2023-01-29T02:35:30.086Z,88.84
2023-01-29T02:38:25.123Z,88.53
2023-01-29T02:40:56.291Z,88.54
2023-01-29T02:43:47.649Z,88.79
2023-01-29T02:46:16.010Z,88.01
2023-01-29T02:48:54.068Z,88.23
2023-01-29T02:51:39.371Z,89.12
2023-01-29T02:54:21.837Z,89.49
2023-01-29T02:56:59.772Z,89.85
2023-01-29T02:59:37.163Z,90.28
2023-01-29T03:02:11.460Z,88.97
2023-01-29T03:04:46.511Z,89.20
2023-01-29T03:07:38.091Z,89.43
2023-01-29T03:10:13.524Z,89.47
2023-01-29T03:12:41.227Z,90.22
2023-01-29T03:15:11.857Z,90.94
2023-01-29T03:17:44.248Z,91.50
2023-01-29T03:20:16.995Z,91.84
2023-01-29T03:22:51.644Z,89.52
2023-01-29T03:25:41.594Z,90.60
2023-01-29T03:28:31.240Z,91.43
2023-01-29T03:31:22.841Z,90.57
2023-01-29T03:34:28.461Z,91.09
2023-01-29T03:37:02.558Z,90.84
2023-01-29T03:39:30.449Z,90.74
2023-01-29T03:42:39.125Z,89.39
2023-01-29T03:45:12.074Z,89.54
2023-01-29T03:47:51.302Z,88.83
2023-01-29T03:50:38.314Z,88.43
2023-01-29T03:53:30.050Z,87.80
2023-01-29T03:56:15.550Z,89.20
2023-01-29T03:58:58.709Z,88.48
2023-01-29T04:01:45.004Z,88.73
2023-01-29T04:04:22.694Z,88.85
2023-01-29T04:06:53.206Z,88.32
2023-01-29T04:09:28.370Z,89.15
2023-01-29T04:12:05.598Z,89.06
2023-01-29T04:14:33.406Z,89.51
2023-01-29T04:17:15.259Z,87.99
2023-01-29T04:19:50.022Z,87.97
2023-01-29T04:22:25.056Z,88.52
2023-01-29T04:24:52.727Z,87.87
2023-01-29T04:27:41.551Z,87.99
2023-01-29T04:30:30.776Z,87.43
2023-01-29T04:33:03.706Z,87.83
2023-01-29T04:36:02.025Z,87.69
2023-01-29T04:38:29.545Z,88.56
2023-01-29T04:41:09.552Z,89.18
2023-01-29T04:43:59.518Z,88.81
2023-01-29T04:46:45.620Z,89.80
2023-01-29T04:49:23.867Z,89.36
2023-01-29T04:52:19.089Z,88.53
2023-01-29T04:55:18.026Z,88.54
2023-01-29T04:57:51.409Z,88.70
2023-01-29T05:00:27.401Z,89.21
2023-01-29T05:02:56.201Z,88.15
2023-01-29T05:05:23.659Z,87.60
2023-01-29T05:07:51.524Z,87.87
2023-01-29T05:10:21.193Z,87.60
2023-01-29T05:12:55.917Z,87.76
2023-01-29T05:15:30.684Z,88.81
2023-01-29T05:18:03.218Z,88.59
2023-01-29T05:20:37.514Z,89.16
2023-01-29T05:23:08.934Z,87.78
2023-01-29T05:25:36.373Z,88.05
2023-01-29T05:28:08.354Z,87.36
2023-01-29T05:30:38.914Z,87.11
2023-01-29T05:33:14.771Z,87.53
2023-01-29T05:35:42.469Z,87.88
2023-01-29T05:38:10.234Z,88.66
2023-01-29T05:40:38.153Z,88.99
2023-01-29T05:43:07.069Z,88.98
2023-01-29T05:45:34.496Z,88.29
2023-01-29T05:48:01.871Z,87.50
2023-01-29T05:50:29.336Z,87.11
2023-01-29T05:53:00.855Z,86.91
2023-01-29T05:55:32.257Z,86.61
2023-01-29T05:58:00.010Z,87.62
2023-01-29T06:00:27.509Z,88.78
2023-01-29T06:02:55.008Z,88.86
2023-01-29T06:05:22.640Z,88.44
2023-01-29T06:07:50.112Z,88.41
2023-01-29T06:10:19.058Z,88.00
2023-01-29T06:12:46.757Z,87.57
2023-01-29T06:15:19.744Z,88.43
2023-01-29T06:17:47.181Z,88.67
2023-01-29T06:20:15.074Z,88.50
2023-01-29T06:22:42.837Z,89.13
2023-01-29T06:25:10.434Z,89.23
2023-01-29T06:27:38.123Z,89.99
2023-01-29T06:30:06.575Z,89.64
2023-01-29T06:32:34.684Z,90.19
2023-01-29T06:35:02.407Z,90.79
2023-01-29T06:37:30.065Z,91.24
2023-01-29T06:39:57.623Z,90.05
2023-01-29T06:42:28.199Z,90.21
2023-01-29T06:44:56.893Z,90.75
2023-01-29T06:47:25.137Z,90.65
2023-01-29T06:49:52.557Z,91.54
2023-01-29T06:52:20.380Z,91.30
2023-01-29T06:54:47.868Z,91.07
2023-01-29T06:57:15.377Z,90.78
2023-01-29T06:59:43.075Z,91.55
2023-01-29T07:02:11.103Z,91.00
2023-01-29T07:04:39.263Z,90.85
2023-01-29T07:07:12.872Z,90.40
2023-01-29T07:09:41.799Z,89.89
2023-01-29T07:12:10.842Z,90.47
2023-01-29T07:14:38.472Z,90.97
2023-01-29T07:17:24.409Z,90.90
2023-01-29T07:19:51.804Z,91.37
2023-01-29T07:22:19.302Z,90.65
2023-01-29T07:24:48.382Z,90.39
2023-01-29T07:27:15.877Z,90.61
2023-01-29T07:29:43.514Z,90.26
2023-01-29T07:32:10.996Z,89.88
2023-01-29T07:34:38.334Z,88.99
2023-01-29T07:37:06.328Z,88.14
2023-01-29T07:39:33.988Z,88.62
2023-01-29T07:42:02.488Z,87.83
2023-01-29T07:44:29.937Z,87.01
2023-01-29T07:46:57.400Z,85.92
2023-01-29T07:49:24.911Z,86.75
2023-01-29T07:51:52.373Z,86.34
2023-01-29T07:54:19.770Z,86.25
2023-01-29T07:56:47.209Z,85.74
2023-01-29T07:59:14.725Z,85.86
2023-01-29T08:01:42.247Z,86.08
2023-01-29T08:04:09.685Z,85.72
2023-01-29T08:06:37.146Z,83.44
2023-01-29T08:09:04.526Z,80.28
2023-01-29T08:11:32.136Z,78.59
2023-01-29T08:14:00.098Z,75.35
2023-01-29T08:16:27.773Z,72.78
2023-01-29T08:18:55.235Z,71.68
2023-01-29T08:21:22.824Z,69.38
2023-01-29T08:23:50.232Z,68.36
2023-01-29T08:26:17.653Z,65.41
2023-01-29T08:28:45.275Z,62.90
2023-01-29T08:31:17.425Z,62.73
2023-01-29T08:33:44.883Z,63.15
2023-01-29T08:36:12.680Z,61.93
2023-01-29T08:38:40.664Z,60.04
2023-01-29T08:41:08.250Z,60.90
2023-01-29T08:43:38.728Z,61.63
2023-01-29T08:46:08.024Z,62.64
2023-01-29T08:48:36.372Z,62.97
2023-01-29T08:51:04.695Z,63.60
2023-01-29T08:53:32.893Z,65.38
2023-01-29T08:56:00.445Z,66.83
2023-01-29T08:58:27.915Z,67.20
2023-01-29T09:00:55.437Z,67.75
2023-01-29T09:03:22.994Z,65.35
2023-01-29T09:05:50.608Z,62.01
2023-01-29T09:08:18.047Z,60.71
2023-01-29T09:10:45.703Z,59.48
2023-01-29T09:13:13.172Z,57.42
2023-01-29T09:15:40.721Z,54.62
2023-01-29T09:18:08.237Z,51.31
2023-01-29T09:20:38.125Z,48.39
2023-01-29T09:23:07.635Z,47.06
2023-01-29T09:25:35.785Z,44.30
2023-01-29T09:28:03.779Z,42.75
2023-01-29T09:30:33.404Z,41.16
2023-01-29T09:33:01.554Z,40.98
2023-01-29T09:35:29.432Z,41.77
2023-01-29T09:37:57.041Z,41.06
2023-01-29T09:40:29.289Z,41.90
2023-01-29T09:43:11.556Z,40.98
2023-01-29T09:46:02.397Z,40.25
2023-01-29T09:48:33.856Z,40.09
2023-01-29T09:51:07.339Z,39.43
2023-01-29T09:53:43.674Z,39.59
2023-01-29T09:56:20.519Z,39.68
2023-01-29T09:58:48.444Z,41.51
2023-01-29T10:01:27.934Z,43.19
2023-01-29T10:04:03.995Z,43.15
2023-01-29T10:06:58.453Z,43.83
2023-01-29T10:09:34.972Z,45.21
2023-01-29T10:12:13.275Z,44.55
2023-01-29T10:14:46.738Z,45.33
2023-01-29T10:17:14.141Z,47.38
2023-01-29T10:20:05.006Z,48.32
2023-01-29T10:23:04.723Z,46.85
2023-01-29T10:25:37.216Z,46.67
2023-01-29T10:28:18.560Z,47.67
2023-01-29T10:30:49.684Z,48.49
2023-01-29T10:33:49.246Z,48.64
2023-01-29T10:36:43.278Z,48.54
2023-01-29T10:39:23.171Z,49.07
2023-01-29T10:42:08.837Z,50.06
2023-01-29T10:44:42.351Z,49.68
2023-01-29T10:47:35.917Z,52.03
2023-01-29T10:50:17.408Z,52.28
2023-01-29T10:53:09.883Z,51.83
2023-01-29T10:56:10.664Z,50.55
2023-01-29T10:58:46.922Z,52.10
2023-01-29T11:01:14.867Z,53.34
2023-01-29T11:03:42.697Z,52.63
2023-01-29T11:06:21.068Z,52.83
2023-01-29T11:08:56.714Z,52.95
2023-01-29T11:11:45.260Z,53.24
2023-01-29T11:14:21.855Z,52.94
2023-01-29T11:16:49.583Z,53.38
2023-01-29T11:19:17.378Z,51.52
2023-01-29T11:21:59.153Z,50.54
2023-01-29T11:24:27.301Z,51.91
2023-01-29T11:26:57.886Z,53.29
2023-01-29T11:29:45.167Z,53.46
2023-01-29T11:32:34.611Z,53.37
2023-01-29T11:35:14.526Z,52.65
2023-01-29T11:37:44.122Z,53.32
2023-01-29T11:40:23.902Z,54.59
2023-01-29T11:42:54.257Z,54.00
2023-01-29T11:45:32.392Z,53.29
2023-01-29T11:48:00.390Z,54.83
2023-01-29T11:50:31.151Z,53.24
2023-01-29T11:53:02.601Z,53.45
2023-01-29T11:55:49.788Z,52.68
2023-01-29T11:58:27.615Z,54.50
2023-01-29T12:00:56.111Z,53.30
2023-01-29T12:03:37.065Z,52.98
2023-01-29T12:06:08.981Z,53.10
2023-01-29T12:08:39.080Z,53.51
2023-01-29T12:11:14.734Z,52.52
2023-01-29T12:13:45.528Z,52.86
2023-01-29T12:16:33.353Z,53.42
2023-01-29T12:19:35.352Z,52.52
2023-01-29T12:22:22.353Z,53.02
2023-01-29T12:24:55.773Z,53.29
2023-01-29T12:27:46.927Z,55.03
2023-01-29T12:30:26.032Z,54.49
2023-01-29T12:33:03.208Z,53.89
2023-01-29T12:35:42.397Z,52.98
2023-01-29T12:38:20.189Z,53.31
2023-01-29T12:40:58.965Z,53.36
2023-01-29T12:43:53.815Z,54.05
2023-01-29T12:46:38.632Z,53.49
2023-01-29T12:49:15.481Z,54.84
2023-01-29T12:52:01.205Z,55.03
2023-01-29T12:54:38.482Z,55.18
2023-01-29T12:57:18.429Z,53.98
2023-01-29T12:59:50.223Z,54.83
2023-01-29T13:02:17.679Z,54.98
2023-01-29T13:04:54.242Z,55.66
2023-01-29T13:07:28.423Z,55.22
2023-01-29T13:10:05.905Z,53.37
2023-01-29T13:12:34.825Z,54.71
2023-01-29T13:15:36.608Z,52.95
2023-01-29T13:18:32.200Z,53.82
2023-01-29T13:21:01.017Z,54.12
2023-01-29T13:23:39.434Z,52.88
2023-01-29T13:26:06.907Z,53.53
2023-01-29T13:28:34.802Z,54.23
2023-01-29T13:31:13.155Z,54.91
2023-01-29T13:33:43.380Z,56.45
2023-01-29T13:36:16.906Z,57.16
2023-01-29T13:38:45.218Z,54.93
2023-01-29T13:41:14.700Z,55.87
2023-01-29T13:43:49.021Z,55.63
2023-01-29T13:46:21.502Z,55.89
2023-01-29T13:48:51.328Z,56.60
2023-01-29T13:51:22.823Z,57.00
2023-01-29T13:54:00.885Z,58.02
2023-01-29T13:56:45.323Z,58.22
2023-01-29T13:59:46.141Z,59.96
2023-01-29T14:02:27.578Z,57.76
2023-01-29T14:05:32.103Z,58.01
2023-01-29T14:08:34.801Z,58.10
2023-01-29T14:11:17.491Z,56.91
2023-01-29T14:13:47.208Z,57.37
2023-01-29T14:16:14.546Z,57.32
2023-01-29T14:18:55.455Z,56.67
2023-01-29T14:21:28.391Z,57.86
2023-01-29T14:24:10.531Z,58.44
2023-01-29T14:26:37.779Z,57.93
2023-01-29T14:29:32.586Z,57.39
2023-01-29T14:32:14.676Z,58.66
2023-01-29T14:34:47.670Z,59.10
2023-01-29T14:37:14.987Z,59.16
2023-01-29T14:39:45.369Z,59.30
2023-01-29T14:42:24.742Z,59.28
2023-01-29T14:44:55.146Z,59.78
2023-01-29T14:47:25.442Z,61.00
2023-01-29T14:49:52.895Z,60.11
2023-01-29T14:52:26.973Z,60.48
2023-01-29T14:54:59.709Z,60.22
2023-01-29T14:57:29.501Z,61.21
2023-01-29T15:00:05.364Z,61.09
2023-01-29T15:02:40.920Z,61.00
2023-01-29T15:05:12.325Z,62.51
2023-01-29T15:07:54.875Z,62.18
2023-01-29T15:10:26.467Z,61.82
2023-01-29T15:13:00.664Z,62.73
2023-01-29T15:15:44.123Z,61.46
2023-01-29T15:18:23.834Z,62.28
2023-01-29T15:21:04.040Z,62.87
2023-01-29T15:23:34.243Z,61.88
2023-01-29T15:26:05.967Z,62.74
2023-01-29T15:28:35.201Z,63.17
2023-01-29T15:31:06.010Z,63.55
2023-01-29T15:33:35.351Z,64.34
2023-01-29T15:36:08.434Z,64.59
2023-01-29T15:38:36.428Z,64.96
2023-01-29T15:41:17.552Z,63.54
2023-01-29T15:43:47.551Z,65.12
2023-01-29T15:46:26.094Z,65.38
2023-01-29T15:48:55.029Z,67.44
2023-01-29T15:51:25.190Z,66.58
2023-01-29T15:54:04.416Z,65.92
2023-01-29T15:56:39.932Z,67.33
2023-01-29T15:59:14.997Z,67.12
2023-01-29T16:01:42.906Z,67.99
2023-01-29T16:04:17.032Z,67.62
2023-01-29T16:06:45.093Z,67.67
2023-01-29T16:09:19.658Z,68.65
2023-01-29T16:11:48.331Z,69.16
2023-01-29T16:14:20.516Z,70.74
2023-01-29T16:16:48.669Z,71.22
2023-01-29T16:19:28.843Z,71.05
2023-01-29T16:22:03.784Z,72.41
2023-01-29T16:24:32.676Z,73.03
2023-01-29T16:27:03.412Z,72.68
2023-01-29T16:29:33.146Z,72.80
2023-01-29T16:32:02.746Z,72.41
2023-01-29T16:34:39.076Z,72.45
2023-01-29T16:37:22.962Z,72.07
2023-01-29T16:39:54.583Z,73.57
2023-01-29T16:42:29.849Z,74.67
2023-01-29T16:45:00.010Z,75.57
2023-01-29T16:47:34.966Z,74.50
2023-01-29T16:50:17.644Z,75.02
2023-01-29T16:53:23.229Z,73.76
2023-01-29T16:55:52.566Z,74.46
2023-01-29T16:58:25.144Z,74.67
2023-01-29T17:01:02.663Z,73.70
2023-01-29T17:03:33.293Z,74.36
2023-01-29T17:06:10.541Z,73.33
2023-01-29T17:08:41.033Z,74.80
2023-01-29T17:11:09.571Z,75.11
2023-01-29T17:13:41.585Z,75.49
2023-01-29T17:16:15.160Z,74.87
2023-01-29T17:18:42.672Z,76.17
2023-01-29T17:21:09.966Z,76.59
2023-01-29T17:23:37.455Z,76.16
2023-01-29T17:26:06.983Z,76.87
2023-01-29T17:28:34.348Z,77.57
2023-01-29T17:31:06.795Z,77.59
2023-01-29T17:33:37.619Z,77.87
2023-01-29T17:36:05.231Z,78.06
2023-01-29T17:38:33.189Z,77.11
2023-01-29T17:41:07.191Z,76.05
2023-01-29T17:43:34.825Z,76.06
2023-01-29T17:46:02.246Z,75.67
2023-01-29T17:48:30.343Z,75.95
2023-01-29T17:51:01.906Z,76.10
2023-01-29T17:53:44.137Z,76.81
2023-01-29T17:56:16.044Z,77.73
2023-01-29T17:58:43.450Z,77.23
2023-01-29T18:01:10.864Z,77.65
2023-01-29T18:03:38.343Z,76.76
2023-01-29T18:06:09.715Z,77.32
2023-01-29T18:08:39.351Z,77.69
2023-01-29T18:11:07.418Z,79.35
2023-01-29T18:13:36.170Z,80.12
2023-01-29T18:16:03.861Z,79.49
2023-01-29T18:18:31.336Z,79.60
2023-01-29T18:20:58.801Z,81.15
2023-01-29T18:23:26.127Z,80.92
2023-01-29T18:25:57.554Z,80.84
2023-01-29T18:28:25.242Z,80.60
2023-01-29T18:30:52.946Z,80.07
2023-01-29T18:33:20.406Z,80.28
2023-01-29T18:35:48.306Z,80.23
2023-01-29T18:38:16.528Z,80.93
2023-01-29T18:40:43.923Z,80.98
2023-01-29T18:43:11.263Z,81.42
2023-01-29T18:45:38.659Z,81.86
2023-01-29T18:48:06.777Z,81.95
2023-01-29T18:50:35.248Z,83.28
2023-01-29T18:53:04.351Z,82.59
2023-01-29T18:55:31.691Z,81.60
2023-01-29T18:58:27.337Z,81.09
2023-01-29T19:00:48.589Z,82.69
2023-01-29T19:03:16.461Z,82.55
2023-01-29T19:05:43.859Z,82.63
2023-01-29T19:08:11.253Z,82.46
2023-01-29T19:10:38.599Z,82.94
2023-01-29T19:13:06.790Z,83.84
2023-01-29T19:15:34.911Z,84.55
2023-01-29T19:18:02.704Z,85.09
2023-01-29T19:20:30.172Z,85.13
2023-01-29T19:22:57.593Z,85.98
2023-01-29T19:25:24.974Z,85.67
2023-01-29T19:27:52.356Z,85.66
2023-01-29T19:30:19.816Z,84.24
2023-01-29T19:32:47.298Z,84.17
2023-01-29T19:35:14.818Z,84.50
2023-01-29T19:37:42.488Z,84.84
2023-01-29T19:40:10.297Z,84.73
2023-01-29T19:42:38.375Z,85.33
2023-01-29T19:45:06.337Z,85.42
2023-01-29T19:47:41.690Z,85.53
2023-01-29T19:50:10.626Z,85.45
2023-01-29T19:52:50.728Z,86.19
2023-01-29T19:55:20.837Z,86.51
2023-01-29T19:57:48.692Z,86.64
2023-01-29T20:00:17.595Z,85.72
2023-01-29T20:02:45.613Z,86.80
2023-01-29T20:05:16.851Z,86.71
2023-01-29T20:07:44.951Z,86.37
2023-01-29T20:10:17.383Z,86.55
2023-01-29T20:12:46.168Z,87.04
2023-01-29T20:15:14.796Z,86.92
2023-01-29T20:17:42.413Z,86.35
2023-01-29T20:20:11.609Z,86.72
2023-01-29T20:22:40.609Z,87.46
2023-01-29T20:25:08.853Z,88.25
2023-01-29T20:27:36.701Z,88.78
2023-01-29T20:30:04.717Z,89.38
2023-01-29T20:32:32.967Z,90.49
2023-01-29T20:35:00.351Z,91.02
2023-01-29T20:37:27.874Z,91.44
2023-01-29T20:39:55.222Z,92.16
2023-01-29T20:42:22.639Z,91.94
2023-01-29T20:44:49.981Z,91.05
2023-01-29T20:47:17.327Z,90.77
2023-01-29T20:49:45.761Z,90.78
2023-01-29T20:52:13.123Z,90.08
2023-01-29T20:54:40.603Z,89.43
2023-01-29T20:57:08.025Z,88.90
2023-01-29T20:59:35.368Z,89.46
2023-01-29T21:02:02.750Z,88.78
2023-01-29T21:04:31.473Z,89.62
2023-01-29T21:06:58.888Z,89.29
2023-01-29T21:09:26.264Z,89.32
2023-01-29T21:11:53.702Z,89.93
2023-01-29T21:14:21.241Z,91.08
2023-01-29T21:16:48.745Z,91.49
2023-01-29T21:19:16.343Z,92.85
2023-01-29T21:21:43.752Z,92.38
2023-01-29T21:24:13.122Z,93.48
2023-01-29T21:26:40.922Z,93.14
2023-01-29T21:29:11.040Z,93.28
2023-01-29T21:31:38.770Z,93.54
2023-01-29T21:34:06.295Z,92.90
2023-01-29T21:36:35.149Z,92.98
2023-01-29T21:39:16.554Z,92.82
2023-01-29T21:42:03.056Z,92.79
2023-01-29T21:44:30.843Z,94.22
2023-01-29T21:46:58.261Z,93.52
2023-01-29T21:49:25.832Z,93.69
2023-01-29T21:51:53.256Z,94.08
2023-01-29T21:54:20.659Z,95.07
2023-01-29T21:56:47.970Z,96.25
2023-01-29T21:59:15.304Z,96.58
2023-01-29T22:01:42.750Z,97.67
2023-01-29T22:04:11.586Z,96.51
2023-01-29T22:06:38.927Z,96.68
2023-01-29T22:09:06.305Z,96.25
2023-01-29T22:11:33.819Z,97.08
2023-01-29T22:14:01.237Z,97.05
2023-01-29T22:16:29.863Z,96.64
2023-01-29T22:18:57.182Z,96.63
2023-01-29T22:21:24.671Z,97.02
2023-01-29T22:23:51.992Z,97.07
2023-01-29T22:26:19.501Z,96.97
2023-01-29T22:28:46.825Z,97.74
2023-01-29T22:31:14.237Z,97.38
2023-01-29T22:33:42.813Z,97.40
2023-01-29T22:36:10.351Z,96.84
2023-01-29T22:38:37.667Z,97.00
2023-01-29T22:41:05.530Z,97.51
2023-01-29T22:43:32.824Z,97.71
2023-01-29T22:46:00.291Z,98.21
2023-01-29T22:48:28.671Z,99.08
2023-01-29T22:51:10.271Z,99.81
2023-01-29T22:53:44.091Z,99.15
2023-01-29T22:56:11.999Z,99.47
2023-01-29T22:58:39.479Z,99.69
2023-01-29T23:01:08.080Z,100.00
2023-01-29T23:03:35.854Z,100.00
2023-01-29T23:06:04.022Z,100.00
2023-01-29T23:08:32.777Z,100.00
2023-01-29T23:11:14.213Z,100.00
2023-01-29T23:13:43.009Z,100.00
2023-01-29T23:16:10.646Z,100.00
2023-01-29T23:18:38.767Z,100.00
2023-01-29T23:21:06.219Z,100.00
2023-01-29T23:23:35.802Z,100.00
2023-01-29T23:26:24.194Z,100.00
2023-01-29T23:28:52.006Z,100.00
2023-01-29T23:31:19.578Z,100.00
2023-01-29T23:33:47.243Z,100.00
2023-01-29T23:36:14.611Z,100.00
2023-01-29T23:38:41.971Z,100.00
2023-01-29T23:41:09.302Z,100.00
2023-01-29T23:43:36.750Z,100.00
2023-01-29T23:46:04.185Z,100.00
2023-01-29T23:48:31.637Z,100.00
2023-01-29T23:50:58.951Z,100.00
2023-01-29T23:53:26.426Z,100.00
2023-01-29T23:56:02.855Z,100.00
2023-01-29T23:58:30.972Z,100.00
